BCS2886 EBBR-EIDW
Flight info
| Callsign | BCS2886 |
|---|---|
| Flight time | 1h 21m |
| Altitude | 38000 |
| Route | DENUT L610 KOPUL DCT SABER DCT SIVDA DCT RODOL UL28 LELDO M145 BAGSO BAGSO4L |
| Aircraft | B738/M-SDE2E3FGHIRWXY/LB1 |
Departure
| Time | 2026-05-05 04:17 |
|---|---|
| Airport | Brussels Airport (EBBR) |
Arrival
| Time | 2026-05-05 05:39 |
|---|---|
| Airport | Dublin Airport (EIDW) |
| Time | Latitude | Longitude | Altitude | Speed | Heading |
|---|---|---|---|---|---|
| 2026-05-05 03:46 | 50.90276 | 4.45752 | 138 ft | 0 kts | 335° |
| 2026-05-05 04:04 | 50.90261 | 4.45763 | 138 ft | 4 kts | 336° |
| 2026-05-05 04:04 | 50.90236 | 4.45779 | 138 ft | 4 kts | 340° |
| 2026-05-05 04:05 | 50.90210 | 4.45791 | 138 ft | 4 kts | 353° |
| 2026-05-05 04:05 | 50.90187 | 4.45788 | 138 ft | 4 kts | 47° |
| 2026-05-05 04:05 | 50.90183 | 4.45781 | 138 ft | 1 kts | 65° |
| 2026-05-05 04:09 | 50.90186 | 4.45793 | 138 ft | 3 kts | 65° |
| 2026-05-05 04:09 | 50.90204 | 4.45854 | 137 ft | 9 kts | 65° |
| 2026-05-05 04:09 | 50.90236 | 4.45964 | 136 ft | 13 kts | 65° |
| 2026-05-05 04:09 | 50.90273 | 4.46093 | 135 ft | 13 kts | 65° |
| 2026-05-05 04:10 | 50.90311 | 4.46220 | 133 ft | 13 kts | 65° |
| 2026-05-05 04:10 | 50.90346 | 4.46345 | 132 ft | 12 kts | 68° |
| 2026-05-05 04:10 | 50.90360 | 4.46475 | 130 ft | 12 kts | 94° |
| 2026-05-05 04:10 | 50.90352 | 4.46526 | 130 ft | 1 kts | 110° |
| 2026-05-05 04:11 | 50.90349 | 4.46537 | 126 ft | 1 kts | 113° |
| 2026-05-05 04:11 | 50.90342 | 4.46561 | 127 ft | 6 kts | 114° |
| 2026-05-05 04:11 | 50.90308 | 4.46674 | 125 ft | 14 kts | 115° |
| 2026-05-05 04:11 | 50.90266 | 4.46811 | 126 ft | 14 kts | 116° |
| 2026-05-05 04:12 | 50.90226 | 4.46943 | 126 ft | 13 kts | 116° |
| 2026-05-05 04:12 | 50.90184 | 4.47072 | 124 ft | 13 kts | 116° |
| 2026-05-05 04:12 | 50.90185 | 4.47210 | 123 ft | 13 kts | 68° |
| 2026-05-05 04:12 | 50.90224 | 4.47345 | 119 ft | 15 kts | 65° |
| 2026-05-05 04:13 | 50.90273 | 4.47511 | 119 ft | 18 kts | 65° |
| 2026-05-05 04:13 | 50.90332 | 4.47706 | 119 ft | 20 kts | 64° |
| 2026-05-05 04:13 | 50.90389 | 4.47907 | 118 ft | 20 kts | 67° |
| 2026-05-05 04:13 | 50.90443 | 4.48104 | 118 ft | 19 kts | 65° |
| 2026-05-05 04:14 | 50.90498 | 4.48294 | 117 ft | 19 kts | 65° |
| 2026-05-05 04:14 | 50.90551 | 4.48477 | 119 ft | 18 kts | 65° |
| 2026-05-05 04:14 | 50.90604 | 4.48660 | 118 ft | 19 kts | 65° |
| 2026-05-05 04:14 | 50.90665 | 4.48868 | 119 ft | 22 kts | 65° |
| 2026-05-05 04:15 | 50.90732 | 4.49100 | 119 ft | 24 kts | 66° |
| 2026-05-05 04:15 | 50.90798 | 4.49329 | 120 ft | 24 kts | 65° |
| 2026-05-05 04:15 | 50.90864 | 4.49557 | 122 ft | 18 kts | 65° |
| 2026-05-05 04:15 | 50.90926 | 4.49665 | 120 ft | 13 kts | 13° |
| 2026-05-05 04:16 | 50.90978 | 4.49579 | 120 ft | 13 kts | 274° |
| 2026-05-05 04:16 | 50.90978 | 4.49433 | 119 ft | 13 kts | 266° |
| 2026-05-05 04:16 | 50.90962 | 4.49292 | 118 ft | 13 kts | 254° |
| 2026-05-05 04:16 | 50.90926 | 4.49150 | 116 ft | 16 kts | 245° |
| 2026-05-05 04:17 | 50.90854 | 4.48898 | 116 ft | 47 kts | 246° |
| 2026-05-05 04:17 | 50.90618 | 4.48085 | 119 ft | 116 kts | 245° |
| 2026-05-05 04:17 | 50.90210 | 4.46647 | 214 ft | 162 kts | 246° |
| 2026-05-05 04:17 | 50.89732 | 4.44986 | 796 ft | 172 kts | 247° |
| 2026-05-05 04:18 | 50.89394 | 4.43109 | 1369 ft | 184 kts | 275° |
| 2026-05-05 04:18 | 50.89838 | 4.41243 | 1988 ft | 184 kts | 314° |
| 2026-05-05 04:18 | 50.90579 | 4.39640 | 2849 ft | 182 kts | 299° |
| 2026-05-05 04:18 | 50.91128 | 4.37766 | 3462 ft | 200 kts | 298° |
| 2026-05-05 04:19 | 50.91774 | 4.35585 | 3565 ft | 235 kts | 295° |
| 2026-05-05 04:19 | 50.92161 | 4.32924 | 3888 ft | 261 kts | 279° |
| 2026-05-05 04:19 | 50.92378 | 4.30002 | 4569 ft | 269 kts | 280° |
| 2026-05-05 04:19 | 50.92965 | 4.27218 | 5317 ft | 267 kts | 307° |
| 2026-05-05 04:20 | 50.94111 | 4.24912 | 6168 ft | 267 kts | 311° |
| 2026-05-05 04:20 | 50.95303 | 4.22632 | 6922 ft | 270 kts | 311° |
| 2026-05-05 04:20 | 50.96502 | 4.20327 | 7700 ft | 273 kts | 310° |
| 2026-05-05 04:20 | 50.97712 | 4.17976 | 8430 ft | 277 kts | 310° |
| 2026-05-05 04:21 | 50.98915 | 4.15614 | 9330 ft | 275 kts | 310° |
| 2026-05-05 04:21 | 51.00124 | 4.13225 | 10015 ft | 280 kts | 309° |
| 2026-05-05 04:21 | 51.01374 | 4.10743 | 10329 ft | 299 kts | 309° |
| 2026-05-05 04:21 | 51.02723 | 4.08053 | 10497 ft | 322 kts | 309° |
| 2026-05-05 04:22 | 51.04137 | 4.05225 | 11012 ft | 330 kts | 309° |
| 2026-05-05 04:22 | 51.05575 | 4.02337 | 11618 ft | 337 kts | 309° |
| 2026-05-05 04:22 | 51.07036 | 3.99396 | 12321 ft | 340 kts | 309° |
| 2026-05-05 04:22 | 51.08505 | 3.96434 | 13075 ft | 343 kts | 309° |
| 2026-05-05 04:23 | 51.09991 | 3.93435 | 13742 ft | 347 kts | 309° |
| 2026-05-05 04:23 | 51.11495 | 3.90397 | 14349 ft | 352 kts | 309° |
| 2026-05-05 04:23 | 51.13013 | 3.87325 | 14991 ft | 355 kts | 309° |
| 2026-05-05 04:23 | 51.14549 | 3.84213 | 15613 ft | 360 kts | 309° |
| 2026-05-05 04:24 | 51.16109 | 3.81050 | 16196 ft | 366 kts | 308° |
| 2026-05-05 04:24 | 51.17688 | 3.77844 | 16776 ft | 372 kts | 309° |
| 2026-05-05 04:24 | 51.19294 | 3.74579 | 17377 ft | 376 kts | 308° |
| 2026-05-05 04:25 | 51.22532 | 3.67983 | 18642 ft | 383 kts | 307° |
| 2026-05-05 04:25 | 51.23849 | 3.64289 | 19185 ft | 387 kts | 287° |
| 2026-05-05 04:25 | 51.24455 | 3.60107 | 19821 ft | 388 kts | 280° |
| 2026-05-05 04:25 | 51.24967 | 3.55861 | 20422 ft | 390 kts | 279° |
| 2026-05-05 04:26 | 51.25488 | 3.51599 | 21027 ft | 392 kts | 279° |
| 2026-05-05 04:26 | 51.26034 | 3.47321 | 21612 ft | 395 kts | 279° |
| 2026-05-05 04:26 | 51.26594 | 3.43013 | 22165 ft | 398 kts | 280° |
| 2026-05-05 04:26 | 51.27162 | 3.38672 | 22704 ft | 401 kts | 280° |
| 2026-05-05 04:27 | 51.27734 | 3.34294 | 23266 ft | 403 kts | 280° |
| 2026-05-05 04:27 | 51.28307 | 3.29895 | 23763 ft | 406 kts | 280° |
| 2026-05-05 04:27 | 51.28688 | 3.26962 | 24064 ft | 408 kts | 280° |
| 2026-05-05 04:27 | 51.29262 | 3.22529 | 24594 ft | 407 kts | 279° |
| 2026-05-05 04:28 | 51.29834 | 3.18103 | 25185 ft | 405 kts | 279° |
| 2026-05-05 04:28 | 51.30401 | 3.13689 | 25659 ft | 407 kts | 279° |
| 2026-05-05 04:28 | 51.30971 | 3.09246 | 26042 ft | 410 kts | 279° |
| 2026-05-05 04:28 | 51.31543 | 3.04762 | 26439 ft | 413 kts | 279° |
| 2026-05-05 04:29 | 51.32117 | 3.00258 | 26871 ft | 414 kts | 279° |
| 2026-05-05 04:29 | 51.32690 | 2.95741 | 27309 ft | 415 kts | 279° |
| 2026-05-05 04:29 | 51.33264 | 2.91207 | 27719 ft | 417 kts | 279° |
| 2026-05-05 04:29 | 51.33839 | 2.86649 | 28109 ft | 419 kts | 279° |
| 2026-05-05 04:30 | 51.34416 | 2.82066 | 28446 ft | 422 kts | 278° |
| 2026-05-05 04:30 | 51.34995 | 2.77445 | 28788 ft | 425 kts | 278° |
| 2026-05-05 04:30 | 51.35573 | 2.72805 | 29178 ft | 426 kts | 278° |
| 2026-05-05 04:30 | 51.36146 | 2.68153 | 29559 ft | 427 kts | 278° |
| 2026-05-05 04:31 | 51.36717 | 2.63480 | 29915 ft | 429 kts | 278° |
| 2026-05-05 04:31 | 51.37289 | 2.58784 | 30211 ft | 431 kts | 278° |
| 2026-05-05 04:31 | 51.37861 | 2.54072 | 30485 ft | 432 kts | 278° |
| 2026-05-05 04:31 | 51.38434 | 2.49343 | 30794 ft | 433 kts | 278° |
| 2026-05-05 04:32 | 51.39006 | 2.44617 | 31205 ft | 431 kts | 278° |
| 2026-05-05 04:32 | 51.39571 | 2.39932 | 31639 ft | 428 kts | 278° |
| 2026-05-05 04:32 | 51.40133 | 2.35249 | 32004 ft | 428 kts | 278° |
| 2026-05-05 04:32 | 51.40693 | 2.30565 | 32299 ft | 428 kts | 278° |
| 2026-05-05 04:33 | 51.41251 | 2.25883 | 32661 ft | 427 kts | 278° |
| 2026-05-05 04:33 | 51.41816 | 2.21220 | 33062 ft | 425 kts | 278° |
| 2026-05-05 04:33 | 51.42385 | 2.16578 | 33442 ft | 424 kts | 278° |
| 2026-05-05 04:33 | 51.42952 | 2.11951 | 33773 ft | 423 kts | 278° |
| 2026-05-05 04:34 | 51.43517 | 2.07318 | 34083 ft | 423 kts | 278° |
| 2026-05-05 04:34 | 51.44077 | 2.02696 | 34324 ft | 423 kts | 278° |
| 2026-05-05 04:34 | 51.44636 | 1.98049 | 34510 ft | 425 kts | 278° |
| 2026-05-05 04:34 | 51.45191 | 1.93390 | 34712 ft | 426 kts | 278° |
| 2026-05-05 04:35 | 51.45745 | 1.88724 | 34925 ft | 427 kts | 278° |
| 2026-05-05 04:35 | 51.46294 | 1.84035 | 35077 ft | 429 kts | 278° |
| 2026-05-05 04:35 | 51.46836 | 1.79323 | 35294 ft | 429 kts | 278° |
| 2026-05-05 04:35 | 51.47374 | 1.74611 | 35537 ft | 429 kts | 278° |
| 2026-05-05 04:36 | 51.47912 | 1.69894 | 35736 ft | 430 kts | 278° |
| 2026-05-05 04:36 | 51.48450 | 1.65169 | 35912 ft | 432 kts | 278° |
| 2026-05-05 04:36 | 51.48988 | 1.60433 | 36119 ft | 432 kts | 278° |
| 2026-05-05 04:36 | 51.49525 | 1.55688 | 36331 ft | 432 kts | 278° |
| 2026-05-05 04:37 | 51.50061 | 1.50940 | 36510 ft | 433 kts | 278° |
| 2026-05-05 04:37 | 51.50597 | 1.46183 | 36695 ft | 434 kts | 278° |
| 2026-05-05 04:37 | 51.51132 | 1.41417 | 36894 ft | 434 kts | 278° |
| 2026-05-05 04:37 | 51.51666 | 1.36637 | 37046 ft | 436 kts | 278° |
| 2026-05-05 04:38 | 51.52200 | 1.31840 | 37232 ft | 436 kts | 278° |
| 2026-05-05 04:38 | 51.52732 | 1.27048 | 37419 ft | 436 kts | 278° |
| 2026-05-05 04:38 | 51.53263 | 1.22245 | 37600 ft | 437 kts | 278° |
| 2026-05-05 04:38 | 51.53995 | 1.17500 | 37719 ft | 441 kts | 290° |
| 2026-05-05 04:39 | 51.55476 | 1.13178 | 37871 ft | 445 kts | 305° |
| 2026-05-05 04:39 | 51.57577 | 1.09515 | 37994 ft | 449 kts | 320° |
| 2026-05-05 04:39 | 51.60112 | 1.06551 | 38021 ft | 452 kts | 323° |
| 2026-05-05 04:40 | 51.65295 | 1.00824 | 37994 ft | 450 kts | 323° |
| 2026-05-05 04:40 | 51.70326 | 0.95010 | 38008 ft | 446 kts | 322° |
| 2026-05-05 04:41 | 51.75104 | 0.88699 | 38006 ft | 443 kts | 317° |
| 2026-05-05 04:41 | 51.79714 | 0.82139 | 38011 ft | 441 kts | 317° |
| 2026-05-05 04:42 | 51.84324 | 0.75613 | 38010 ft | 441 kts | 318° |
| 2026-05-05 04:42 | 51.88966 | 0.69106 | 38015 ft | 442 kts | 318° |
| 2026-05-05 04:43 | 51.93629 | 0.62581 | 38020 ft | 444 kts | 318° |
| 2026-05-05 04:43 | 51.98307 | 0.56020 | 38018 ft | 446 kts | 318° |
| 2026-05-05 04:44 | 52.03008 | 0.49406 | 38023 ft | 448 kts | 318° |
| 2026-05-05 04:44 | 52.07721 | 0.42757 | 38017 ft | 450 kts | 318° |
| 2026-05-05 04:45 | 52.12453 | 0.36056 | 38009 ft | 451 kts | 318° |
| 2026-05-05 04:45 | 52.17188 | 0.29333 | 38012 ft | 452 kts | 318° |
| 2026-05-05 04:46 | 52.21919 | 0.22596 | 38006 ft | 451 kts | 318° |
| 2026-05-05 04:46 | 52.26640 | 0.15854 | 38004 ft | 450 kts | 318° |
| 2026-05-05 04:47 | 52.31342 | 0.09121 | 38016 ft | 449 kts | 318° |
| 2026-05-05 04:47 | 52.35976 | 0.02322 | 37998 ft | 446 kts | 313° |
| 2026-05-05 04:48 | 52.39887 | -0.05495 | 38002 ft | 443 kts | 307° |
| 2026-05-05 04:48 | 52.43625 | -0.13475 | 38003 ft | 441 kts | 307° |
| 2026-05-05 04:49 | 52.47372 | -0.21414 | 37999 ft | 440 kts | 307° |
| 2026-05-05 04:49 | 52.51137 | -0.29321 | 37996 ft | 439 kts | 307° |
| 2026-05-05 04:50 | 52.54902 | -0.37217 | 38003 ft | 439 kts | 307° |
| 2026-05-05 04:50 | 52.58670 | -0.45137 | 37994 ft | 440 kts | 307° |
| 2026-05-05 04:51 | 52.62409 | -0.53025 | 37996 ft | 440 kts | 307° |
| 2026-05-05 04:51 | 52.66175 | -0.60993 | 37994 ft | 441 kts | 307° |
| 2026-05-05 04:52 | 52.69940 | -0.68987 | 37999 ft | 442 kts | 307° |
| 2026-05-05 04:52 | 52.73708 | -0.77013 | 38015 ft | 443 kts | 307° |
| 2026-05-05 04:53 | 52.77477 | -0.85067 | 38029 ft | 443 kts | 307° |
| 2026-05-05 04:53 | 52.81242 | -0.93137 | 38012 ft | 444 kts | 307° |
| 2026-05-05 04:54 | 52.85002 | -1.01222 | 38017 ft | 443 kts | 307° |
| 2026-05-05 04:54 | 52.88747 | -1.09300 | 38017 ft | 442 kts | 307° |
| 2026-05-05 04:55 | 52.92479 | -1.17376 | 38019 ft | 441 kts | 307° |
| 2026-05-05 04:55 | 52.96195 | -1.25444 | 38020 ft | 440 kts | 307° |
| 2026-05-05 04:56 | 52.99898 | -1.33509 | 38020 ft | 439 kts | 307° |
| 2026-05-05 04:56 | 53.03583 | -1.41561 | 38021 ft | 437 kts | 306° |
| 2026-05-05 04:57 | 53.07254 | -1.49608 | 38022 ft | 437 kts | 306° |
| 2026-05-05 04:57 | 53.10916 | -1.57659 | 38021 ft | 436 kts | 306° |
| 2026-05-05 04:58 | 53.14565 | -1.65710 | 38034 ft | 435 kts | 306° |
| 2026-05-05 04:58 | 53.18202 | -1.73758 | 38029 ft | 435 kts | 306° |
| 2026-05-05 04:59 | 53.21833 | -1.81817 | 38027 ft | 434 kts | 306° |
| 2026-05-05 04:59 | 53.25148 | -1.90205 | 38046 ft | 433 kts | 296° |
| 2026-05-05 05:00 | 53.27779 | -1.99253 | 38043 ft | 433 kts | 295° |
| 2026-05-05 05:00 | 53.30407 | -2.08313 | 38044 ft | 433 kts | 296° |
| 2026-05-05 05:01 | 53.33063 | -2.17283 | 38052 ft | 433 kts | 296° |
| 2026-05-05 05:01 | 53.35720 | -2.26339 | 38047 ft | 434 kts | 293° |
| 2026-05-05 05:02 | 53.37695 | -2.35875 | 38050 ft | 434 kts | 287° |
| 2026-05-05 05:02 | 53.39450 | -2.45553 | 37759 ft | 439 kts | 287° |
| 2026-05-05 05:02 | 53.40351 | -2.50451 | 37319 ft | 439 kts | 287° |
| 2026-05-05 05:03 | 53.41259 | -2.55318 | 36787 ft | 435 kts | 287° |
| 2026-05-05 05:03 | 53.42164 | -2.60120 | 36415 ft | 430 kts | 288° |
| 2026-05-05 05:03 | 53.43061 | -2.64873 | 36019 ft | 426 kts | 288° |
| 2026-05-05 05:03 | 53.43940 | -2.69535 | 35617 ft | 422 kts | 288° |
| 2026-05-05 05:04 | 53.44820 | -2.74213 | 35216 ft | 419 kts | 288° |
| 2026-05-05 05:04 | 53.45690 | -2.78850 | 34819 ft | 415 kts | 288° |
| 2026-05-05 05:04 | 53.46530 | -2.83339 | 34434 ft | 413 kts | 288° |
| 2026-05-05 05:04 | 53.47385 | -2.87922 | 34035 ft | 410 kts | 288° |
| 2026-05-05 05:05 | 53.48231 | -2.92476 | 33580 ft | 407 kts | 288° |
| 2026-05-05 05:05 | 53.49064 | -2.97007 | 33147 ft | 405 kts | 288° |
| 2026-05-05 05:05 | 53.49886 | -3.01502 | 32738 ft | 402 kts | 287° |
| 2026-05-05 05:05 | 53.50700 | -3.05970 | 32349 ft | 398 kts | 288° |
| 2026-05-05 05:06 | 53.51507 | -3.10403 | 31970 ft | 395 kts | 288° |
| 2026-05-05 05:06 | 53.52307 | -3.14804 | 31594 ft | 392 kts | 288° |
| 2026-05-05 05:06 | 53.53099 | -3.19171 | 31223 ft | 389 kts | 287° |
| 2026-05-05 05:06 | 53.53883 | -3.23505 | 30851 ft | 387 kts | 287° |
| 2026-05-05 05:07 | 53.54662 | -3.27816 | 30490 ft | 384 kts | 287° |
| 2026-05-05 05:07 | 53.55434 | -3.32103 | 30128 ft | 382 kts | 287° |
| 2026-05-05 05:07 | 53.56202 | -3.36367 | 29715 ft | 379 kts | 287° |
| 2026-05-05 05:07 | 53.56960 | -3.40597 | 29320 ft | 376 kts | 287° |
| 2026-05-05 05:08 | 53.57716 | -3.44819 | 28934 ft | 378 kts | 287° |
| 2026-05-05 05:08 | 53.58477 | -3.49058 | 28539 ft | 379 kts | 287° |
| 2026-05-05 05:08 | 53.59240 | -3.53278 | 28159 ft | 376 kts | 287° |
| 2026-05-05 05:08 | 53.59997 | -3.57468 | 27778 ft | 372 kts | 287° |
| 2026-05-05 05:09 | 53.60745 | -3.61622 | 27389 ft | 369 kts | 287° |
| 2026-05-05 05:09 | 53.61485 | -3.65742 | 27017 ft | 366 kts | 288° |
| 2026-05-05 05:09 | 53.62317 | -3.69712 | 26648 ft | 363 kts | 291° |
| 2026-05-05 05:09 | 53.63261 | -3.73642 | 26298 ft | 361 kts | 293° |
| 2026-05-05 05:10 | 53.64223 | -3.77528 | 25923 ft | 358 kts | 292° |
| 2026-05-05 05:10 | 53.65173 | -3.81392 | 25557 ft | 356 kts | 292° |
| 2026-05-05 05:10 | 53.66106 | -3.85246 | 25197 ft | 354 kts | 292° |
| 2026-05-05 05:10 | 53.67023 | -3.89085 | 24835 ft | 352 kts | 292° |
| 2026-05-05 05:11 | 53.67933 | -3.92915 | 24477 ft | 351 kts | 291° |
| 2026-05-05 05:11 | 53.68838 | -3.96718 | 24131 ft | 349 kts | 291° |
| 2026-05-05 05:11 | 53.69755 | -4.00496 | 23782 ft | 347 kts | 292° |
| 2026-05-05 05:11 | 53.70668 | -4.04248 | 23400 ft | 345 kts | 291° |
| 2026-05-05 05:12 | 53.71488 | -4.08036 | 22989 ft | 342 kts | 284° |
| 2026-05-05 05:12 | 53.71890 | -4.11961 | 22658 ft | 338 kts | 274° |
| 2026-05-05 05:12 | 53.72037 | -4.15899 | 22302 ft | 335 kts | 273° |
| 2026-05-05 05:12 | 53.72159 | -4.19809 | 21952 ft | 332 kts | 273° |
| 2026-05-05 05:13 | 53.72281 | -4.23688 | 21595 ft | 330 kts | 273° |
| 2026-05-05 05:13 | 53.72409 | -4.27541 | 21252 ft | 327 kts | 273° |
| 2026-05-05 05:13 | 53.72541 | -4.31359 | 20908 ft | 325 kts | 274° |
| 2026-05-05 05:13 | 53.72675 | -4.35156 | 20569 ft | 323 kts | 274° |
| 2026-05-05 05:14 | 53.72764 | -4.37656 | 20346 ft | 321 kts | 274° |
| 2026-05-05 05:14 | 53.72896 | -4.41413 | 20011 ft | 320 kts | 274° |
| 2026-05-05 05:14 | 53.73026 | -4.45148 | 19677 ft | 318 kts | 274° |
| 2026-05-05 05:14 | 53.73155 | -4.48858 | 19344 ft | 316 kts | 274° |
| 2026-05-05 05:15 | 53.73282 | -4.52557 | 19015 ft | 315 kts | 274° |
| 2026-05-05 05:15 | 53.73408 | -4.56237 | 18686 ft | 313 kts | 274° |
| 2026-05-05 05:15 | 53.73533 | -4.59900 | 18353 ft | 312 kts | 274° |
| 2026-05-05 05:15 | 53.73656 | -4.63547 | 17977 ft | 310 kts | 274° |
| 2026-05-05 05:16 | 53.73777 | -4.67177 | 17623 ft | 309 kts | 274° |
| 2026-05-05 05:16 | 53.73897 | -4.70788 | 17274 ft | 307 kts | 274° |
| 2026-05-05 05:16 | 53.74015 | -4.74366 | 16943 ft | 304 kts | 274° |
| 2026-05-05 05:16 | 53.74131 | -4.77928 | 16618 ft | 302 kts | 274° |
| 2026-05-05 05:17 | 53.74244 | -4.81458 | 16300 ft | 300 kts | 274° |
| 2026-05-05 05:17 | 53.74358 | -4.84971 | 15979 ft | 299 kts | 274° |
| 2026-05-05 05:17 | 53.74474 | -4.88464 | 15659 ft | 298 kts | 274° |
| 2026-05-05 05:17 | 53.74590 | -4.91963 | 15343 ft | 299 kts | 274° |
| 2026-05-05 05:18 | 53.74707 | -4.95484 | 15023 ft | 300 kts | 274° |
| 2026-05-05 05:18 | 53.74822 | -4.98998 | 14693 ft | 299 kts | 274° |
| 2026-05-05 05:18 | 53.74936 | -5.02490 | 14379 ft | 298 kts | 274° |
| 2026-05-05 05:18 | 53.75048 | -5.05978 | 14059 ft | 296 kts | 273° |
| 2026-05-05 05:19 | 53.75157 | -5.09448 | 13715 ft | 295 kts | 273° |
| 2026-05-05 05:19 | 53.75251 | -5.12904 | 13357 ft | 294 kts | 270° |
| 2026-05-05 05:19 | 53.74918 | -5.16291 | 13065 ft | 292 kts | 253° |
| 2026-05-05 05:19 | 53.74264 | -5.19515 | 12753 ft | 290 kts | 252° |
| 2026-05-05 05:20 | 53.73602 | -5.22672 | 12444 ft | 288 kts | 252° |
| 2026-05-05 05:20 | 53.72928 | -5.25894 | 12116 ft | 286 kts | 252° |
| 2026-05-05 05:20 | 53.72282 | -5.29020 | 11810 ft | 285 kts | 252° |
| 2026-05-05 05:20 | 53.71636 | -5.32169 | 11489 ft | 283 kts | 252° |
| 2026-05-05 05:21 | 53.70995 | -5.35307 | 11190 ft | 282 kts | 252° |
| 2026-05-05 05:21 | 53.70359 | -5.38431 | 10880 ft | 281 kts | 252° |
| 2026-05-05 05:21 | 53.69726 | -5.41541 | 10577 ft | 280 kts | 252° |
| 2026-05-05 05:21 | 53.69094 | -5.44640 | 10288 ft | 278 kts | 252° |
| 2026-05-05 05:22 | 53.68472 | -5.47677 | 10171 ft | 270 kts | 252° |
| 2026-05-05 05:22 | 53.67991 | -5.50681 | 9980 ft | 263 kts | 268° |
| 2026-05-05 05:22 | 53.68057 | -5.53741 | 9782 ft | 261 kts | 274° |
| 2026-05-05 05:22 | 53.68164 | -5.56805 | 9554 ft | 263 kts | 274° |
| 2026-05-05 05:23 | 53.68255 | -5.59899 | 9333 ft | 266 kts | 274° |
| 2026-05-05 05:23 | 53.68339 | -5.62989 | 9136 ft | 259 kts | 273° |
| 2026-05-05 05:23 | 53.68103 | -5.65924 | 8884 ft | 252 kts | 248° |
| 2026-05-05 05:23 | 53.67213 | -5.68396 | 8681 ft | 243 kts | 234° |
| 2026-05-05 05:24 | 53.66130 | -5.70518 | 8471 ft | 235 kts | 231° |
| 2026-05-05 05:24 | 53.65044 | -5.72496 | 8287 ft | 226 kts | 224° |
| 2026-05-05 05:24 | 53.63670 | -5.73655 | 8109 ft | 221 kts | 190° |
| 2026-05-05 05:24 | 53.62177 | -5.73437 | 8065 ft | 216 kts | 161° |
| 2026-05-05 05:25 | 53.60915 | -5.72110 | 8080 ft | 215 kts | 134° |
| 2026-05-05 05:25 | 53.59999 | -5.70183 | 8069 ft | 206 kts | 127° |
| 2026-05-05 05:25 | 53.59165 | -5.68278 | 8071 ft | 200 kts | 126° |
| 2026-05-05 05:25 | 53.58339 | -5.66391 | 8064 ft | 200 kts | 126° |
| 2026-05-05 05:26 | 53.57517 | -5.64517 | 8065 ft | 199 kts | 126° |
| 2026-05-05 05:26 | 53.56539 | -5.62916 | 8059 ft | 196 kts | 152° |
| 2026-05-05 05:26 | 53.55360 | -5.61788 | 8069 ft | 196 kts | 151° |
| 2026-05-05 05:26 | 53.54185 | -5.60615 | 8085 ft | 197 kts | 150° |
| 2026-05-05 05:27 | 53.53009 | -5.59427 | 8078 ft | 198 kts | 150° |
| 2026-05-05 05:27 | 53.51830 | -5.58229 | 8068 ft | 199 kts | 150° |
| 2026-05-05 05:27 | 53.49366 | -5.56290 | 8052 ft | 194 kts | 186° |
| 2026-05-05 05:28 | 53.48136 | -5.57044 | 7897 ft | 190 kts | 223° |
| 2026-05-05 05:28 | 53.47180 | -5.58550 | 7726 ft | 188 kts | 230° |
| 2026-05-05 05:28 | 53.46279 | -5.60122 | 7521 ft | 185 kts | 230° |
| 2026-05-05 05:28 | 53.45399 | -5.61670 | 7324 ft | 181 kts | 230° |
| 2026-05-05 05:29 | 53.44533 | -5.63191 | 7156 ft | 180 kts | 230° |
| 2026-05-05 05:29 | 53.43665 | -5.64713 | 6982 ft | 181 kts | 230° |
| 2026-05-05 05:29 | 53.42788 | -5.66245 | 6807 ft | 183 kts | 230° |
| 2026-05-05 05:29 | 53.41905 | -5.67785 | 6630 ft | 184 kts | 230° |
| 2026-05-05 05:30 | 53.41015 | -5.69334 | 6438 ft | 185 kts | 230° |
| 2026-05-05 05:30 | 53.40123 | -5.70882 | 6241 ft | 184 kts | 230° |
| 2026-05-05 05:30 | 53.39255 | -5.72388 | 6044 ft | 180 kts | 230° |
| 2026-05-05 05:30 | 53.38390 | -5.73883 | 5858 ft | 177 kts | 230° |
| 2026-05-05 05:31 | 53.37532 | -5.75366 | 5690 ft | 178 kts | 229° |
| 2026-05-05 05:31 | 53.36670 | -5.76855 | 5509 ft | 178 kts | 229° |
| 2026-05-05 05:31 | 53.35805 | -5.78347 | 5340 ft | 179 kts | 230° |
| 2026-05-05 05:31 | 53.34935 | -5.79849 | 5125 ft | 182 kts | 229° |
| 2026-05-05 05:32 | 53.34157 | -5.81485 | 4892 ft | 177 kts | 253° |
| 2026-05-05 05:32 | 53.34150 | -5.83405 | 4728 ft | 162 kts | 294° |
| 2026-05-05 05:32 | 53.34786 | -5.84921 | 4581 ft | 160 kts | 315° |
| 2026-05-05 05:32 | 53.35564 | -5.86284 | 4425 ft | 164 kts | 314° |
| 2026-05-05 05:33 | 53.36362 | -5.87681 | 4259 ft | 168 kts | 314° |
| 2026-05-05 05:33 | 53.37168 | -5.89087 | 4081 ft | 165 kts | 315° |
| 2026-05-05 05:33 | 53.37955 | -5.90458 | 3900 ft | 161 kts | 315° |
| 2026-05-05 05:33 | 53.38726 | -5.91800 | 3739 ft | 159 kts | 315° |
| 2026-05-05 05:34 | 53.39493 | -5.93134 | 3597 ft | 159 kts | 315° |
| 2026-05-05 05:34 | 53.40207 | -5.94552 | 3420 ft | 161 kts | 296° |
| 2026-05-05 05:34 | 53.40387 | -5.96398 | 3294 ft | 161 kts | 278° |
| 2026-05-05 05:34 | 53.40498 | -5.98280 | 3115 ft | 164 kts | 279° |
| 2026-05-05 05:35 | 53.40614 | -6.00179 | 2953 ft | 163 kts | 279° |
| 2026-05-05 05:35 | 53.40723 | -6.02041 | 2774 ft | 156 kts | 279° |
| 2026-05-05 05:35 | 53.40823 | -6.03784 | 2623 ft | 148 kts | 279° |
| 2026-05-05 05:35 | 53.40924 | -6.05504 | 2517 ft | 148 kts | 279° |
| 2026-05-05 05:36 | 53.41025 | -6.07237 | 2301 ft | 150 kts | 279° |
| 2026-05-05 05:36 | 53.41125 | -6.08985 | 2093 ft | 150 kts | 279° |
| 2026-05-05 05:36 | 53.41223 | -6.10707 | 1871 ft | 147 kts | 280° |
| 2026-05-05 05:36 | 53.41319 | -6.12378 | 1692 ft | 146 kts | 280° |
| 2026-05-05 05:37 | 53.41416 | -6.14080 | 1508 ft | 148 kts | 280° |
| 2026-05-05 05:37 | 53.41513 | -6.15798 | 1320 ft | 147 kts | 280° |
| 2026-05-05 05:37 | 53.41606 | -6.17473 | 1090 ft | 143 kts | 279° |
| 2026-05-05 05:37 | 53.41702 | -6.19130 | 892 ft | 149 kts | 278° |
| 2026-05-05 05:38 | 53.41795 | -6.20841 | 721 ft | 144 kts | 275° |
| 2026-05-05 05:38 | 53.41877 | -6.22473 | 551 ft | 138 kts | 277° |
| 2026-05-05 05:38 | 53.41964 | -6.24076 | 359 ft | 139 kts | 277° |
| 2026-05-05 05:38 | 53.42060 | -6.25728 | 220 ft | 143 kts | 277° |
| 2026-05-05 05:39 | 53.42146 | -6.27259 | 209 ft | 113 kts | 275° |
| 2026-05-05 05:39 | 53.42203 | -6.28327 | 212 ft | 71 kts | 275° |
| 2026-05-05 05:39 | 53.42236 | -6.28905 | 215 ft | 29 kts | 275° |
| 2026-05-05 05:39 | 53.42267 | -6.29060 | 213 ft | 12 kts | 334° |
| 2026-05-05 05:40 | 53.42344 | -6.29077 | 212 ft | 12 kts | 5° |
| 2026-05-05 05:40 | 53.42403 | -6.29014 | 210 ft | 12 kts | 60° |
| 2026-05-05 05:40 | 53.42409 | -6.28880 | 210 ft | 12 kts | 94° |
| 2026-05-05 05:40 | 53.42402 | -6.28748 | 210 ft | 11 kts | 95° |
| 2026-05-05 05:41 | 53.42394 | -6.28606 | 215 ft | 14 kts | 95° |
| 2026-05-05 05:41 | 53.42384 | -6.28429 | 210 ft | 16 kts | 95° |
| 2026-05-05 05:41 | 53.42374 | -6.28250 | 216 ft | 15 kts | 95° |
| 2026-05-05 05:41 | 53.42365 | -6.28077 | 219 ft | 15 kts | 95° |
| 2026-05-05 05:42 | 53.42357 | -6.27912 | 210 ft | 14 kts | 95° |
| 2026-05-05 05:42 | 53.42347 | -6.27731 | 214 ft | 18 kts | 96° |
| 2026-05-05 05:42 | 53.42333 | -6.27502 | 210 ft | 20 kts | 96° |
| 2026-05-05 05:42 | 53.42319 | -6.27270 | 215 ft | 20 kts | 95° |
| 2026-05-05 05:43 | 53.42307 | -6.27040 | 219 ft | 20 kts | 95° |
| 2026-05-05 05:43 | 53.42295 | -6.26811 | 210 ft | 19 kts | 95° |
| 2026-05-05 05:43 | 53.42283 | -6.26589 | 210 ft | 19 kts | 96° |
| 2026-05-05 05:43 | 53.42270 | -6.26374 | 214 ft | 18 kts | 95° |
| 2026-05-05 05:44 | 53.42279 | -6.26168 | 219 ft | 18 kts | 70° |
| 2026-05-05 05:44 | 53.42352 | -6.26009 | 215 ft | 17 kts | 45° |
| 2026-05-05 05:44 | 53.42428 | -6.25882 | 210 ft | 12 kts | 36° |
| 2026-05-05 05:44 | 53.42489 | -6.25906 | 210 ft | 7 kts | 303° |
| 2026-05-05 05:45 | 53.42493 | -6.25941 | 211 ft | 2 kts | 262° |
| 2026-05-05 05:45 | 53.42482 | -6.25961 | 210 ft | 3 kts | 225° |
| 2026-05-05 05:45 | 53.42472 | -6.25997 | 214 ft | 5 kts | 263° |
| 2026-05-05 05:45 | 53.42455 | -6.26045 | 213 ft | 5 kts | 226° |
| 2026-05-05 05:46 | 53.42433 | -6.26083 | 218 ft | 3 kts | 225° |
| 2026-05-05 05:46 | 53.42427 | -6.26093 | 214 ft | 0 kts | 225° |